Time,TemperatureF,DewpointF,PressureIn,WindDirection,WindDirectionDegrees,WindSpeedMPH,WindSpeedGustMPH,Humidity,HourlyPrecipIn,Conditions,Clouds,dailyrainin,SoftwareType,DateUTC
2013-02-13 00:00:00,32.1,26.3,29.88,SW,216,1.0,1.0,79,0.00,,,0.00,Wunderground v.1.15,2013-02-13 06:00:00,
2013-02-13 00:05:00,31.9,26.1,29.88,SW,216,0.0,1.0,79,0.00,,,0.00,Wunderground v.1.15,2013-02-13 06:05:00,
2013-02-13 00:10:00,31.8,26.3,29.87,SW,216,0.0,0.0,80,0.00,,,0.00,Wunderground v.1.15,2013-02-13 06:10:00,
2013-02-13 00:15:00,31.6,26.1,29.87,SSW,210,0.0,1.0,80,0.00,,,0.00,Wunderground v.1.15,2013-02-13 06:15:00,
2013-02-13 00:20:00,31.5,26.0,29.87,SSW,200,0.0,0.0,80,0.00,,,0.00,Wunderground v.1.15,2013-02-13 06:20:00,
2013-02-13 00:30:00,31.2,26.0,29.87,SW,221,0.0,0.0,81,0.00,,,0.00,Wunderground v.1.15,2013-02-13 06:30:00,
2013-02-13 00:35:00,31.0,25.9,29.87,SW,221,0.0,0.0,81,0.00,,,0.00,Wunderground v.1.15,2013-02-13 06:35:00,
2013-02-13 00:40:00,31.0,25.9,29.87,SW,221,0.0,0.0,81,0.00,,,0.00,Wunderground v.1.15,2013-02-13 06:40:00,
2013-02-13 00:45:00,30.7,25.9,29.87,SW,221,0.0,0.0,82,0.00,,,0.00,Wunderground v.1.15,2013-02-13 06:45:00,
2013-02-13 00:50:00,30.5,25.7,29.87,SW,221,0.0,0.0,82,0.00,,,0.00,Wunderground v.1.15,2013-02-13 06:50:00,
2013-02-13 00:55:00,30.4,25.9,29.87,SW,221,0.0,0.0,83,0.00,,,0.00,Wunderground v.1.15,2013-02-13 06:55:00,
2013-02-13 01:05:00,30.2,25.7,29.87,SW,221,0.0,0.0,83,0.00,,,0.00,Wunderground v.1.15,2013-02-13 07:05:00,
2013-02-13 01:10:00,30.1,25.6,29.87,SW,221,0.0,0.0,83,0.00,,,0.00,Wunderground v.1.15,2013-02-13 07:10:00,
2013-02-13 01:15:00,30.1,25.8,29.86,SW,221,0.0,0.0,84,0.00,,,0.00,Wunderground v.1.15,2013-02-13 07:15:00,
2013-02-13 01:20:00,30.0,25.8,29.86,SW,221,0.0,0.0,84,0.00,,,0.00,Wunderground v.1.15,2013-02-13 07:20:00,
2013-02-13 01:25:00,29.9,25.7,29.86,SW,221,0.0,0.0,84,0.00,,,0.00,Wunderground v.1.15,2013-02-13 07:25:00,
2013-02-13 01:35:00,29.7,25.7,29.86,SW,221,0.0,0.0,85,0.00,,,0.00,Wunderground v.1.15,2013-02-13 07:35:00,
2013-02-13 01:40:00,29.6,25.6,29.86,SW,221,0.0,0.0,85,0.00,,,0.00,Wunderground v.1.15,2013-02-13 07:40:00,
2013-02-13 01:45:00,29.5,25.5,29.86,SW,221,0.0,0.0,85,0.00,,,0.00,Wunderground v.1.15,2013-02-13 07:45:00,
2013-02-13 01:50:00,29.3,25.4,29.86,SW,221,0.0,0.0,85,0.00,,,0.00,Wunderground v.1.15,2013-02-13 07:50:00,
2013-02-13 01:55:00,29.1,25.4,29.86,SW,221,0.0,0.0,86,0.00,,,0.00,Wunderground v.1.15,2013-02-13 07:55:00,
2013-02-13 02:00:00,29.0,25.3,29.86,SW,221,0.0,0.0,86,0.00,,,0.00,Wunderground v.1.15,2013-02-13 08:00:00,
2013-02-13 02:05:00,29.0,25.6,29.86,SW,221,0.0,0.0,87,0.00,,,0.00,Wunderground v.1.15,2013-02-13 08:05:00,
2013-02-13 02:10:00,28.9,25.2,29.86,SW,221,0.0,0.0,86,0.00,,,0.00,Wunderground v.1.15,2013-02-13 08:10:00,
2013-02-13 02:15:00,28.9,25.5,29.86,SW,221,0.0,0.0,87,0.00,,,0.00,Wunderground v.1.15,2013-02-13 08:15:00,
2013-02-13 02:25:00,29.6,26.2,29.86,WNW,298,0.0,1.0,87,0.00,,,0.00,Wunderground v.1.15,2013-02-13 08:25:00,
2013-02-13 02:30:00,30.0,26.6,29.86,WNW,294,0.0,3.0,87,0.00,,,0.00,Wunderground v.1.15,2013-02-13 08:30:00,
2013-02-13 02:35:00,30.4,26.7,29.86,WNW,292,1.0,3.0,86,0.00,,,0.00,Wunderground v.1.15,2013-02-13 08:35:00,
2013-02-13 02:40:00,30.4,26.4,29.86,WNW,296,2.0,2.0,85,0.00,,,0.00,Wunderground v.1.15,2013-02-13 08:40:00,
2013-02-13 02:45:00,30.4,26.4,29.86,NW,310,2.0,3.0,85,0.00,,,0.00,Wunderground v.1.15,2013-02-13 08:45:00,
2013-02-13 02:50:00,30.4,26.4,29.86,WNW,299,2.0,2.0,85,0.00,,,0.00,Wunderground v.1.15,2013-02-13 08:50:00,
2013-02-13 02:55:00,30.5,26.5,29.86,WNW,302,2.0,2.0,85,0.00,,,0.00,Wunderground v.1.15,2013-02-13 08:55:00,
2013-02-13 03:00:00,30.5,26.5,29.85,NW,306,3.0,3.0,85,0.00,,,0.00,Wunderground v.1.15,2013-02-13 09:00:00,
2013-02-13 03:05:00,30.4,26.4,29.85,WNW,296,2.0,3.0,85,0.00,,,0.00,Wunderground v.1.15,2013-02-13 09:05:00,
2013-02-13 03:15:00,30.2,26.2,29.84,NW,304,2.0,2.0,85,0.00,,,0.00,Wunderground v.1.15,2013-02-13 09:15:00,
2013-02-13 03:20:00,30.1,26.1,29.84,WNW,301,2.0,2.0,85,0.00,,,0.00,Wunderground v.1.15,2013-02-13 09:20:00,
2013-02-13 03:25:00,30.1,26.4,29.84,WNW,296,1.0,2.0,86,0.00,,,0.00,Wunderground v.1.15,2013-02-13 09:25:00,
2013-02-13 03:30:00,30.0,26.3,29.84,WNW,298,1.0,1.0,86,0.00,,,0.00,Wunderground v.1.15,2013-02-13 09:30:00,
2013-02-13 06:05:00,27.7,25.2,29.82,WNW,300,0.0,0.0,90,0.00,,,0.00,Wunderground v.1.15,2013-02-13 12:05:00,
2013-02-13 06:10:00,27.6,25.1,29.82,NW,311,0.0,4.0,90,0.00,,,0.00,Wunderground v.1.15,2013-02-13 12:10:00,
2013-02-13 06:15:00,27.6,25.1,29.82,WNW,302,0.0,4.0,90,0.00,,,0.00,Wunderground v.1.15,2013-02-13 12:15:00,
2013-02-13 06:20:00,27.5,24.7,29.82,NW,307,0.0,0.0,89,0.00,,,0.00,Wunderground v.1.15,2013-02-13 12:20:00,
2013-02-13 06:25:00,27.5,24.7,29.81,WNW,284,0.0,0.0,89,0.00,,,0.00,Wunderground v.1.15,2013-02-13 12:25:00,
2013-02-13 06:30:00,27.4,24.6,29.81,WNW,296,0.0,0.0,89,0.00,,,0.00,Wunderground v.1.15,2013-02-13 12:30:00,
2013-02-13 06:35:00,27.3,24.8,29.81,WNW,294,0.0,0.0,90,0.00,,,0.00,Wunderground v.1.15,2013-02-13 12:35:00,
2013-02-13 06:45:00,27.2,24.7,29.81,NW,304,1.0,1.0,90,0.00,,,0.00,Wunderground v.1.15,2013-02-13 12:45:00,
2013-02-13 06:50:00,27.2,24.7,29.81,West,279,2.0,2.0,90,0.00,,,0.00,Wunderground v.1.15,2013-02-13 12:50:00,
2013-02-13 06:55:00,27.2,24.7,29.81,WNW,294,2.0,2.0,90,0.00,,,0.00,Wunderground v.1.15,2013-02-13 12:55:00,
2013-02-13 07:00:00,27.1,24.6,29.81,WNW,299,1.0,1.0,90,0.00,,,0.00,Wunderground v.1.15,2013-02-13 13:00:00,
2013-02-13 07:05:00,27.1,24.6,29.81,NW,305,1.0,1.0,90,0.00,,,0.00,Wunderground v.1.15,2013-02-13 13:05:00,
2013-02-13 07:10:00,27.1,24.6,29.81,WNW,302,1.0,1.0,90,0.00,,,0.00,Wunderground v.1.15,2013-02-13 13:10:00,
2013-02-13 07:20:00,27.0,24.5,29.81,NW,306,0.0,0.0,90,0.00,,,0.00,Wunderground v.1.15,2013-02-13 13:20:00,
2013-02-13 07:25:00,27.0,24.5,29.82,WNW,296,0.0,0.0,90,0.00,,,0.00,Wunderground v.1.15,2013-02-13 13:25:00,
2013-02-13 07:30:00,27.0,24.5,29.81,WNW,299,0.0,2.0,90,0.00,,,0.00,Wunderground v.1.15,2013-02-13 13:30:00,
2013-02-13 07:35:00,27.0,24.5,29.82,WNW,294,1.0,3.0,90,0.00,,,0.00,Wunderground v.1.15,2013-02-13 13:35:00,
2013-02-13 07:40:00,27.1,24.6,29.81,WNW,291,1.0,1.0,90,0.00,,,0.00,Wunderground v.1.15,2013-02-13 13:40:00,
2013-02-13 07:45:00,27.2,24.7,29.81,WNW,298,2.0,2.0,90,0.00,,,0.00,Wunderground v.1.15,2013-02-13 13:45:00,
2013-02-13 07:50:00,27.4,24.9,29.81,West,267,2.0,2.0,90,0.00,,,0.00,Wunderground v.1.15,2013-02-13 13:50:00,
2013-02-13 08:00:00,27.8,25.2,29.82,WNW,303,0.0,0.0,90,0.00,,,0.00,Wunderground v.1.15,2013-02-13 14:00:00,
2013-02-13 08:05:00,28.0,25.2,29.82,WNW,300,0.0,5.0,89,0.00,,,0.00,Wunderground v.1.15,2013-02-13 14:05:00,
2013-02-13 08:10:00,28.2,25.4,29.82,WNW,292,2.0,2.0,89,0.00,,,0.00,Wunderground v.1.15,2013-02-13 14:10:00,
2013-02-13 08:15:00,28.3,25.5,29.82,NW,313,2.0,2.0,89,0.00,,,0.00,Wunderground v.1.15,2013-02-13 14:15:00,
2013-02-13 08:20:00,28.6,25.8,29.82,WNW,290,2.0,4.0,89,0.00,,,0.00,Wunderground v.1.15,2013-02-13 14:20:00,
2013-02-13 08:25:00,28.7,25.6,29.82,WNW,290,3.0,4.0,88,0.00,,,0.00,Wunderground v.1.15,2013-02-13 14:25:00,
2013-02-13 08:30:00,28.9,25.8,29.82,WNW,288,3.0,3.0,88,0.00,,,0.00,Wunderground v.1.15,2013-02-13 14:30:00,
2013-02-13 08:40:00,29.3,25.9,29.83,WNW,285,3.0,3.0,87,0.00,,,0.00,Wunderground v.1.15,2013-02-13 14:40:00,
2013-02-13 08:45:00,29.6,26.2,29.82,WNW,286,3.0,3.0,87,0.00,,,0.00,Wunderground v.1.15,2013-02-13 14:45:00,
2013-02-13 08:55:00,29.9,26.2,29.82,WNW,296,2.0,2.0,86,0.00,,,0.00,Wunderground v.1.15,2013-02-13 14:55:00,
2013-02-13 09:00:00,30.2,26.8,29.82,West,277,1.0,1.0,87,0.00,,,0.00,Wunderground v.1.15,2013-02-13 15:00:00,
2013-02-13 09:05:00,30.5,26.8,29.82,WNW,298,1.0,1.0,86,0.00,,,0.00,Wunderground v.1.15,2013-02-13 15:05:00,
2013-02-13 09:10:00,30.8,26.8,29.82,WNW,298,2.0,2.0,85,0.00,,,0.00,Wunderground v.1.15,2013-02-13 15:10:00,
2013-02-13 09:15:00,30.9,26.9,29.82,WNW,299,3.0,4.0,85,0.00,,,0.00,Wunderground v.1.15,2013-02-13 15:15:00,
2013-02-13 09:20:00,31.1,27.1,29.82,NW,304,4.0,4.0,85,0.00,,,0.00,Wunderground v.1.15,2013-02-13 15:20:00,
2013-02-13 09:25:00,31.5,27.5,29.82,WNW,283,2.0,4.0,85,0.00,,,0.00,Wunderground v.1.15,2013-02-13 15:25:00,
2013-02-13 09:35:00,31.7,27.4,29.82,WNW,300,1.0,2.0,84,0.00,,,0.00,Wunderground v.1.15,2013-02-13 15:35:00,
2013-02-13 09:40:00,32.0,27.4,29.82,NW,304,2.0,3.0,83,0.00,,,0.00,Wunderground v.1.15,2013-02-13 15:40:00,
2013-02-13 09:45:00,32.5,27.9,29.82,WNW,293,3.0,7.0,83,0.00,,,0.00,Wunderground v.1.15,2013-02-13 15:45:00,
2013-02-13 09:50:00,32.9,28.0,29.83,WNW,298,2.0,7.0,82,0.00,,,0.00,Wunderground v.1.15,2013-02-13 15:50:00,
2013-02-13 09:55:00,33.3,28.4,29.83,NW,306,2.0,7.0,82,0.00,,,0.00,Wunderground v.1.15,2013-02-13 15:55:00,
2013-02-13 10:00:00,33.6,28.4,29.82,NW,304,2.0,2.0,81,0.00,,,0.00,Wunderground v.1.15,2013-02-13 16:00:00,
2013-02-13 10:10:00,33.9,28.4,29.83,NW,314,2.0,2.0,80,0.00,,,0.00,Wunderground v.1.15,2013-02-13 16:10:00,
2013-02-13 10:15:00,33.9,28.1,29.83,West,259,3.0,3.0,79,0.00,,,0.00,Wunderground v.1.15,2013-02-13 16:15:00,
2013-02-13 10:20:00,33.9,28.4,29.82,WNW,283,3.0,3.0,80,0.00,,,0.00,Wunderground v.1.15,2013-02-13 16:20:00,
2013-02-13 10:25:00,34.4,29.2,29.83,West,281,1.0,3.0,81,0.00,,,0.00,Wunderground v.1.15,2013-02-13 16:25:00,
2013-02-13 10:35:00,34.8,29.0,29.83,West,271,3.0,3.0,79,0.00,,,0.00,Wunderground v.1.15,2013-02-13 16:35:00,
2013-02-13 10:40:00,35.1,29.2,29.83,NW,306,2.0,2.0,79,0.00,,,0.00,Wunderground v.1.15,2013-02-13 16:40:00,
2013-02-13 10:45:00,35.4,29.2,29.83,WNW,293,2.0,3.0,78,0.00,,,0.00,Wunderground v.1.15,2013-02-13 16:45:00,
2013-02-13 10:55:00,35.8,29.6,29.83,WNW,297,3.0,3.0,78,0.00,,,0.00,Wunderground v.1.15,2013-02-13 16:55:00,
2013-02-13 11:00:00,36.0,29.8,29.83,WNW,286,2.0,3.0,78,0.00,,,0.00,Wunderground v.1.15,2013-02-13 17:00:00,
2013-02-13 11:05:00,36.2,29.7,29.83,WNW,288,3.0,7.0,77,0.00,,,0.00,Wunderground v.1.15,2013-02-13 17:05:00,
2013-02-13 11:10:00,36.2,29.7,29.83,WNW,294,3.0,4.0,77,0.00,,,0.00,Wunderground v.1.15,2013-02-13 17:10:00,
2013-02-13 11:15:00,36.6,30.1,29.82,West,263,2.0,4.0,77,0.00,,,0.00,Wunderground v.1.15,2013-02-13 17:15:00,
2013-02-13 11:20:00,36.8,29.9,29.82,West,281,2.0,2.0,76,0.00,,,0.00,Wunderground v.1.15,2013-02-13 17:20:00,
2013-02-13 11:25:00,36.8,29.9,29.82,WNW,300,2.0,2.0,76,0.00,,,0.00,Wunderground v.1.15,2013-02-13 17:25:00,
2013-02-13 11:30:00,36.9,30.4,29.82,WNW,297,2.0,2.0,77,0.00,,,0.00,Wunderground v.1.15,2013-02-13 17:30:00,
2013-02-13 11:40:00,38.1,30.5,29.81,West,267,0.0,0.0,74,0.00,,,0.00,Wunderground v.1.15,2013-02-13 17:40:00,
2013-02-13 11:45:00,38.8,30.9,29.81,WSW,245,1.0,2.0,73,0.00,,,0.00,Wunderground v.1.15,2013-02-13 17:45:00,
2013-02-13 11:50:00,39.4,31.1,29.81,West,265,1.0,1.0,72,0.00,,,0.00,Wunderground v.1.15,2013-02-13 17:50:00,
2013-02-13 11:55:00,39.7,31.1,29.81,WNW,296,1.0,1.0,71,0.00,,,0.00,Wunderground v.1.15,2013-02-13 17:55:00,
2013-02-13 12:00:00,39.9,30.9,29.81,NW,305,1.0,2.0,70,0.00,,,0.00,Wunderground v.1.15,2013-02-13 18:00:00,
2013-02-13 12:05:00,40.1,31.4,29.80,SW,234,1.0,2.0,71,0.00,,,0.00,Wunderground v.1.15,2013-02-13 18:05:00,
2013-02-13 12:15:00,40.6,31.2,29.80,SW,236,1.0,3.0,69,0.00,,,0.00,Wunderground v.1.15,2013-02-13 18:15:00,
2013-02-13 12:20:00,41.1,31.7,29.80,SW,230,1.0,1.0,69,0.00,,,0.00,Wunderground v.1.15,2013-02-13 18:20:00,
2013-02-13 12:25:00,41.6,31.4,29.80,SW,228,1.0,1.0,67,0.00,,,0.00,Wunderground v.1.15,2013-02-13 18:25:00,
2013-02-13 12:35:00,42.1,31.6,29.79,West,278,1.0,2.0,66,0.00,,,0.00,Wunderground v.1.15,2013-02-13 18:35:00,
2013-02-13 12:40:00,42.2,31.3,29.78,WSW,252,1.0,8.0,65,0.00,,,0.00,Wunderground v.1.15,2013-02-13 18:40:00,
2013-02-13 12:45:00,42.4,31.1,29.78,WNW,294,1.0,8.0,64,0.00,,,0.00,Wunderground v.1.15,2013-02-13 18:45:00,
2013-02-13 12:50:00,42.7,31.7,29.78,SSW,203,1.0,1.0,65,0.00,,,0.00,Wunderground v.1.15,2013-02-13 18:50:00,
2013-02-13 12:55:00,43.2,31.1,29.78,WNW,291,1.0,2.0,62,0.00,,,0.00,Wunderground v.1.15,2013-02-13 18:55:00,
2013-02-13 13:00:00,43.1,31.4,29.78,West,265,1.0,2.0,63,0.00,,,0.00,Wunderground v.1.15,2013-02-13 19:00:00,
2013-02-13 13:05:00,43.2,31.8,29.78,West,262,1.0,2.0,64,0.00,,,0.00,Wunderground v.1.15,2013-02-13 19:05:00,
2013-02-13 13:15:00,44.3,32.9,29.78,South,188,1.0,1.0,64,0.00,,,0.00,Wunderground v.1.15,2013-02-13 19:15:00,
2013-02-13 13:20:00,44.7,32.9,29.77,West,269,1.0,1.0,63,0.00,,,0.00,Wunderground v.1.15,2013-02-13 19:20:00,
2013-02-13 13:25:00,45.3,32.6,29.77,SW,232,0.0,1.0,61,0.00,,,0.00,Wunderground v.1.15,2013-02-13 19:25:00,
2013-02-13 13:30:00,44.9,32.3,29.77,WNW,298,1.0,1.0,61,0.00,,,0.00,Wunderground v.1.15,2013-02-13 19:30:00,
2013-02-13 13:35:00,44.9,33.1,29.77,SW,236,1.0,1.0,63,0.00,,,0.00,Wunderground v.1.15,2013-02-13 19:35:00,
2013-02-13 13:40:00,45.2,32.5,29.77,NW,309,1.0,1.0,61,0.00,,,0.00,Wunderground v.1.15,2013-02-13 19:40:00,
2013-02-13 13:50:00,45.6,32.5,29.77,West,263,1.0,2.0,60,0.00,,,0.00,Wunderground v.1.15,2013-02-13 19:50:00,
2013-02-13 13:55:00,45.1,32.4,29.77,WNW,290,2.0,4.0,61,0.00,,,0.00,Wunderground v.1.15,2013-02-13 19:55:00,
2013-02-13 14:00:00,45.1,32.4,29.77,WSW,254,2.0,7.0,61,0.00,,,0.00,Wunderground v.1.15,2013-02-13 20:00:00,
2013-02-13 14:05:00,45.1,32.8,29.77,South,173,3.0,7.0,62,0.00,,,0.00,Wunderground v.1.15,2013-02-13 20:05:00,
2013-02-13 14:10:00,45.9,33.2,29.77,NW,304,2.0,2.0,61,0.00,,,0.00,Wunderground v.1.15,2013-02-13 20:10:00,
2013-02-13 14:15:00,45.7,32.6,29.76,WNW,295,1.0,2.0,60,0.00,,,0.00,Wunderground v.1.15,2013-02-13 20:15:00,
2013-02-13 14:20:00,45.3,32.6,29.76,WSW,244,2.0,2.0,61,0.00,,,0.00,Wunderground v.1.15,2013-02-13 20:20:00,
2013-02-13 14:25:00,45.7,33.4,29.76,WNW,292,1.0,2.0,62,0.00,,,0.00,Wunderground v.1.15,2013-02-13 20:25:00,
2013-02-13 14:35:00,45.9,32.4,29.76,WNW,290,1.0,2.0,59,0.00,,,0.00,Wunderground v.1.15,2013-02-13 20:35:00,
2013-02-13 14:40:00,46.2,33.1,29.76,WNW,298,1.0,1.0,60,0.00,,,0.00,Wunderground v.1.15,2013-02-13 20:40:00,
2013-02-13 14:45:00,46.6,33.0,29.76,SSW,206,1.0,1.0,59,0.00,,,0.00,Wunderground v.1.15,2013-02-13 20:45:00,
2013-02-13 14:50:00,46.5,32.9,29.76,WSW,252,1.0,1.0,59,0.00,,,0.00,Wunderground v.1.15,2013-02-13 20:50:00,
2013-02-13 14:55:00,46.5,33.4,29.75,West,279,1.0,1.0,60,0.00,,,0.00,Wunderground v.1.15,2013-02-13 20:55:00,
2013-02-13 15:00:00,46.9,33.3,29.76,SSW,211,1.0,1.0,59,0.00,,,0.00,Wunderground v.1.15,2013-02-13 21:00:00,
2013-02-13 15:05:00,47.0,32.5,29.75,SW,236,1.0,1.0,57,0.00,,,0.00,Wunderground v.1.15,2013-02-13 21:05:00,
2013-02-13 15:15:00,47.4,32.9,29.75,WNW,296,1.0,2.0,57,0.00,,,0.00,Wunderground v.1.15,2013-02-13 21:15:00,
2013-02-13 15:20:00,47.6,32.7,29.75,WNW,292,0.0,0.0,56,0.00,,,0.00,Wunderground v.1.15,2013-02-13 21:20:00,
2013-02-13 15:25:00,48.1,32.7,29.75,WSW,246,0.0,0.0,55,0.00,,,0.00,Wunderground v.1.15,2013-02-13 21:25:00,
2013-02-13 15:30:00,48.4,32.5,29.75,WSW,245,1.0,1.0,54,0.00,,,0.00,Wunderground v.1.15,2013-02-13 21:30:00,
2013-02-13 15:35:00,48.2,32.8,29.75,SSW,201,1.0,1.0,55,0.00,,,0.00,Wunderground v.1.15,2013-02-13 21:35:00,
2013-02-13 15:45:00,47.8,32.4,29.75,SSW,194,2.0,3.0,55,0.00,,,0.00,Wunderground v.1.15,2013-02-13 21:45:00,
2013-02-13 15:50:00,48.0,32.1,29.75,WSW,245,1.0,1.0,54,0.00,,,0.00,Wunderground v.1.15,2013-02-13 21:50:00,
2013-02-13 15:55:00,48.1,32.2,29.75,West,268,1.0,2.0,54,0.00,,,0.00,Wunderground v.1.15,2013-02-13 21:55:00,
2013-02-13 16:00:00,48.3,31.9,29.74,SSW,200,1.0,5.0,53,0.00,,,0.00,Wunderground v.1.15,2013-02-13 22:00:00,
2013-02-13 16:05:00,48.3,31.9,29.74,SSW,200,2.0,5.0,53,0.00,,,0.00,Wunderground v.1.15,2013-02-13 22:05:00,
2013-02-13 16:15:00,48.6,32.2,29.74,SSW,192,1.0,1.0,53,0.00,,,0.00,Wunderground v.1.15,2013-02-13 22:15:00,
2013-02-13 16:25:00,48.5,32.1,29.74,SSW,211,1.0,2.0,53,0.00,,,0.00,Wunderground v.1.15,2013-02-13 22:25:00,
2013-02-13 16:30:00,48.5,32.1,29.74,SW,229,1.0,1.0,53,0.00,,,0.00,Wunderground v.1.15,2013-02-13 22:30:00,
2013-02-13 16:35:00,48.5,32.1,29.73,SW,236,1.0,1.0,53,0.00,,,0.00,Wunderground v.1.15,2013-02-13 22:35:00,
2013-02-13 16:40:00,48.4,32.0,29.73,South,184,1.0,1.0,53,0.00,,,0.00,Wunderground v.1.15,2013-02-13 22:40:00,
2013-02-13 16:45:00,48.2,31.9,29.73,South,179,1.0,3.0,53,0.00,,,0.00,Wunderground v.1.15,2013-02-13 22:45:00,
2013-02-13 16:50:00,47.9,32.0,29.73,SW,227,2.0,2.0,54,0.00,,,0.00,Wunderground v.1.15,2013-02-13 22:50:00,
2013-02-13 16:55:00,47.6,31.8,29.73,South,179,1.0,2.0,54,0.00,,,0.00,Wunderground v.1.15,2013-02-13 22:55:00,
2013-02-13 17:00:00,47.4,32.0,29.73,SW,226,1.0,1.0,55,0.00,,,0.00,Wunderground v.1.15,2013-02-13 23:00:00,
2013-02-13 17:05:00,47.2,31.8,29.73,SW,221,1.0,3.0,55,0.00,,,0.00,Wunderground v.1.15,2013-02-13 23:05:00,
2013-02-13 17:10:00,47.0,31.7,29.73,SSW,199,1.0,1.0,55,0.00,,,0.00,Wunderground v.1.15,2013-02-13 23:10:00,
2013-02-13 17:20:00,46.5,31.6,29.73,SW,217,0.0,0.0,56,0.00,,,0.00,Wunderground v.1.15,2013-02-13 23:20:00,
2013-02-13 17:25:00,46.3,31.9,29.73,SSW,205,0.0,0.0,57,0.00,,,0.00,Wunderground v.1.15,2013-02-13 23:25:00,
2013-02-13 17:30:00,46.0,31.6,29.73,SW,216,0.0,0.0,57,0.00,,,0.00,Wunderground v.1.15,2013-02-13 23:30:00,
2013-02-13 17:35:00,45.7,31.8,29.73,SW,215,0.0,0.0,58,0.00,,,0.00,Wunderground v.1.15,2013-02-13 23:35:00,
2013-02-13 17:40:00,45.4,31.5,29.73,SW,216,0.0,0.0,58,0.00,,,0.00,Wunderground v.1.15,2013-02-13 23:40:00,
2013-02-13 17:45:00,45.0,31.5,29.73,SW,217,0.0,0.0,59,0.00,,,0.00,Wunderground v.1.15,2013-02-13 23:45:00,
2013-02-13 17:55:00,44.5,31.1,29.73,SW,217,0.0,0.0,59,0.00,,,0.00,Wunderground v.1.15,2013-02-13 23:55:00,
2013-02-13 18:00:00,44.4,31.4,29.73,SW,217,0.0,0.0,60,0.00,,,0.00,Wunderground v.1.15,2013-02-14 00:00:00,
2013-02-13 18:05:00,44.1,31.1,29.73,SSW,209,0.0,0.0,60,0.00,,,0.00,Wunderground v.1.15,2013-02-14 00:05:00,
2013-02-13 18:10:00,43.8,31.2,29.73,SSW,209,0.0,0.0,61,0.00,,,0.00,Wunderground v.1.15,2013-02-14 00:10:00,
2013-02-13 18:20:00,43.2,31.1,29.73,SSW,209,0.0,0.0,62,0.00,,,0.00,Wunderground v.1.15,2013-02-14 00:20:00,
2013-02-13 18:25:00,42.9,31.2,29.73,SSW,209,0.0,0.0,63,0.00,,,0.00,Wunderground v.1.15,2013-02-14 00:25:00,
2013-02-13 18:30:00,42.7,31.0,29.73,SSW,209,0.0,0.0,63,0.00,,,0.00,Wunderground v.1.15,2013-02-14 00:30:00,
2013-02-13 18:40:00,42.5,31.2,29.73,SW,221,0.0,0.0,64,0.00,,,0.00,Wunderground v.1.15,2013-02-14 00:40:00,
2013-02-13 18:45:00,42.5,31.2,29.73,SW,221,0.0,0.0,64,0.00,,,0.00,Wunderground v.1.15,2013-02-14 00:45:00,
2013-02-13 18:50:00,42.5,31.2,29.73,SW,221,0.0,0.0,64,0.00,,,0.00,Wunderground v.1.15,2013-02-14 00:50:00,
2013-02-13 19:00:00,42.4,31.1,29.73,SW,221,0.0,0.0,64,0.00,,,0.00,Wunderground v.1.15,2013-02-14 01:00:00,
2013-02-13 19:05:00,42.4,31.5,29.73,SW,221,0.0,0.0,65,0.00,,,0.00,Wunderground v.1.15,2013-02-14 01:05:00,
2013-02-13 19:15:00,42.3,31.4,29.72,SSW,198,0.0,0.0,65,0.00,,,0.00,Wunderground v.1.15,2013-02-14 01:15:00,
2013-02-13 19:20:00,42.3,31.4,29.72,SSW,209,0.0,5.0,65,0.00,,,0.00,Wunderground v.1.15,2013-02-14 01:20:00,
2013-02-13 19:25:00,42.3,31.0,29.72,South,178,0.0,5.0,64,0.00,,,0.00,Wunderground v.1.15,2013-02-14 01:25:00,
2013-02-13 19:30:00,42.3,31.0,29.72,SSW,198,1.0,2.0,64,0.00,,,0.00,Wunderground v.1.15,2013-02-14 01:30:00,
2013-02-13 19:35:00,42.4,31.1,29.72,South,180,2.0,2.0,64,0.00,,,0.00,Wunderground v.1.15,2013-02-14 01:35:00,
2013-02-13 19:45:00,42.4,31.1,29.71,South,173,1.0,1.0,64,0.00,,,0.00,Wunderground v.1.15,2013-02-14 01:45:00,
2013-02-13 19:50:00,42.3,31.0,29.71,SSW,211,1.0,2.0,64,0.00,,,0.00,Wunderground v.1.15,2013-02-14 01:50:00,
2013-02-13 19:55:00,42.3,31.0,29.71,SSW,205,1.0,2.0,64,0.00,,,0.00,Wunderground v.1.15,2013-02-14 01:55:00,
2013-02-13 20:00:00,42.4,31.1,29.71,SSW,202,1.0,1.0,64,0.00,,,0.00,Wunderground v.1.15,2013-02-14 02:00:00,
2013-02-13 20:05:00,42.4,31.1,29.71,SSW,206,1.0,1.0,64,0.00,,,0.00,Wunderground v.1.15,2013-02-14 02:05:00,
2013-02-13 20:10:00,42.3,31.0,29.71,SSW,209,0.0,0.0,64,0.00,,,0.00,Wunderground v.1.15,2013-02-14 02:10:00,
2013-02-13 20:20:00,42.0,31.1,29.70,SW,221,0.0,0.0,65,0.00,,,0.00,Wunderground v.1.15,2013-02-14 02:20:00,
2013-02-13 20:25:00,41.8,30.9,29.70,South,172,0.0,0.0,65,0.00,,,0.00,Wunderground v.1.15,2013-02-14 02:25:00,
2013-02-13 20:30:00,41.7,31.2,29.70,South,175,0.0,0.0,66,0.00,,,0.00,Wunderground v.1.15,2013-02-14 02:30:00,
2013-02-13 20:35:00,41.6,31.1,29.70,South,178,0.0,0.0,66,0.00,,,0.00,Wunderground v.1.15,2013-02-14 02:35:00,
2013-02-13 20:40:00,41.7,31.2,29.69,SSW,198,0.0,0.0,66,0.00,,,0.00,Wunderground v.1.15,2013-02-14 02:40:00,
2013-02-13 20:45:00,41.8,30.9,29.69,SSW,195,1.0,1.0,65,0.00,,,0.00,Wunderground v.1.15,2013-02-14 02:45:00,
2013-02-13 20:55:00,41.7,31.2,29.69,South,187,2.0,3.0,66,0.00,,,0.00,Wunderground v.1.15,2013-02-14 02:55:00,
2013-02-13 21:00:00,41.6,31.1,29.69,SW,214,2.0,2.0,66,0.00,,,0.00,Wunderground v.1.15,2013-02-14 03:00:00,
2013-02-13 21:05:00,41.5,31.0,29.69,SSW,205,2.0,2.0,66,0.00,,,0.00,Wunderground v.1.15,2013-02-14 03:05:00,
2013-02-13 21:15:00,41.1,31.0,29.69,South,178,1.0,3.0,67,0.00,,,0.00,Wunderground v.1.15,2013-02-14 03:15:00,
2013-02-13 21:20:00,41.0,31.2,29.68,South,191,2.0,2.0,68,0.00,,,0.00,Wunderground v.1.15,2013-02-14 03:20:00,
2013-02-13 21:25:00,40.7,31.0,29.68,South,183,1.0,2.0,68,0.00,,,0.00,Wunderground v.1.15,2013-02-14 03:25:00,
2013-02-13 21:30:00,40.6,31.2,29.68,SSW,202,0.0,0.0,69,0.00,,,0.00,Wunderground v.1.15,2013-02-14 03:30:00,
2013-02-13 21:35:00,40.7,31.0,29.68,SW,219,0.0,0.0,68,0.00,,,0.00,Wunderground v.1.15,2013-02-14 03:35:00,
2013-02-13 21:40:00,40.8,31.1,29.68,SSW,208,1.0,1.0,68,0.00,,,0.00,Wunderground v.1.15,2013-02-14 03:40:00,
2013-02-13 21:50:00,41.2,31.1,29.68,SSW,207,1.0,1.0,67,0.00,,,0.00,Wunderground v.1.15,2013-02-14 03:50:00,
2013-02-13 21:55:00,41.4,31.3,29.68,SSW,196,2.0,3.0,67,0.00,,,0.00,Wunderground v.1.15,2013-02-14 03:55:00,
2013-02-13 22:00:00,41.5,31.0,29.68,SSW,205,2.0,2.0,66,0.00,,,0.00,Wunderground v.1.15,2013-02-14 04:00:00,
2013-02-13 22:05:00,41.7,31.2,29.68,SSW,198,2.0,2.0,66,0.00,,,0.00,Wunderground v.1.15,2013-02-14 04:05:00,
2013-02-13 22:10:00,41.7,31.2,29.68,South,183,2.0,2.0,66,0.00,,,0.00,Wunderground v.1.15,2013-02-14 04:10:00,
2013-02-13 22:15:00,41.7,31.2,29.68,SSW,213,1.0,2.0,66,0.00,,,0.00,Wunderground v.1.15,2013-02-14 04:15:00,
2013-02-13 22:20:00,41.6,31.1,29.68,WSW,244,2.0,2.0,66,0.00,,,0.00,Wunderground v.1.15,2013-02-14 04:20:00,
2013-02-13 22:30:00,41.6,31.1,29.68,SW,232,4.0,4.0,66,0.00,,,0.00,Wunderground v.1.15,2013-02-14 04:30:00,
2013-02-13 22:40:00,41.2,30.7,29.68,South,171,2.0,2.0,66,0.00,,,0.00,Wunderground v.1.15,2013-02-14 04:40:00,
2013-02-13 22:45:00,41.0,30.9,29.68,SW,225,2.0,2.0,67,0.00,,,0.00,Wunderground v.1.15,2013-02-14 04:45:00,
2013-02-13 22:50:00,40.7,31.0,29.68,SW,235,1.0,1.0,68,0.00,,,0.00,Wunderground v.1.15,2013-02-14 04:50:00,
2013-02-13 22:55:00,40.6,30.9,29.68,WSW,238,1.0,1.0,68,0.00,,,0.00,Wunderground v.1.15,2013-02-14 04:55:00,
2013-02-13 23:00:00,40.6,30.9,29.68,WSW,250,1.0,1.0,68,0.00,,,0.00,Wunderground v.1.15,2013-02-14 05:00:00,
2013-02-13 23:05:00,40.4,31.0,29.68,WSW,254,0.0,1.0,69,0.00,,,0.00,Wunderground v.1.15,2013-02-14 05:05:00,
2013-02-13 23:10:00,40.2,30.8,29.68,SSW,209,0.0,0.0,69,0.00,,,0.00,Wunderground v.1.15,2013-02-14 05:10:00,
2013-02-13 23:20:00,40.0,31.0,29.68,WSW,251,0.0,0.0,70,0.00,,,0.00,Wunderground v.1.15,2013-02-14 05:20:00,
2013-02-13 23:25:00,39.9,30.9,29.68,WSW,255,0.0,0.0,70,0.00,,,0.00,Wunderground v.1.15,2013-02-14 05:25:00,
2013-02-13 23:30:00,39.7,31.1,29.68,WSW,255,0.0,0.0,71,0.00,,,0.00,Wunderground v.1.15,2013-02-14 05:30:00,
2013-02-13 23:35:00,39.6,31.0,29.68,West,262,0.0,0.0,71,0.00,,,0.00,Wunderground v.1.15,2013-02-14 05:35:00,
2013-02-13 23:40:00,39.6,31.3,29.68,West,269,0.0,0.0,72,0.00,,,0.00,Wunderground v.1.15,2013-02-14 05:40:00,
2013-02-13 23:45:00,39.9,31.3,29.69,NW,311,1.0,1.0,71,0.00,,,0.00,Wunderground v.1.15,2013-02-14 05:45:00,
2013-02-13 23:50:00,40.1,31.8,29.69,WNW,296,1.0,1.0,72,0.00,,,0.00,Wunderground v.1.15,2013-02-14 05:50:00,